Time;durP1;ratioP1;P1;durP2;ratioP2;P2;SDS_P1;SDS_P2;PMS_P1;PMS_P2;Temp;Humidity;BMP_temperature;BMP_pressure;BME280_temperature;BME280_humidity;BME280_pressure;Samples;Min_cycle;Max_cycle;Signal;HPM_P1;HPM_P2
2024/01/13 00:00:30;;;;;;;9.98;5.00;;;;;;;;;;5013721;28;20030;-73
2024/01/13 00:02:55;;;;;;;9.93;4.75;;;;;;;;;;5013673;28;20072;-74
2024/01/13 00:05:20;;;;;;;7.05;4.30;;;;;;;;;;5016577;28;20026;-75
2024/01/13 00:07:46;;;;;;;9.57;4.63;;;;;;;;;;4995719;28;20029;-74
2024/01/13 00:10:11;;;;;;;7.97;4.03;;;;;;;;;;4995269;28;20259;-74
2024/01/13 00:12:36;;;;;;;7.68;4.57;;;;;;;;;;5012964;28;20263;-74
2024/01/13 00:15:02;;;;;;;10.07;4.28;;;;;;;;;;5014085;28;20033;-75
2024/01/13 00:17:27;;;;;;;7.90;4.45;;;;;;;;;;4995580;28;20021;-75
2024/01/13 00:19:52;;;;;;;8.93;4.10;;;;;;;;;;5014195;28;20129;-75
2024/01/13 00:22:18;;;;;;;6.10;3.67;;;;;;;;;;5013372;28;20294;-75
2024/01/13 00:24:43;;;;;;;7.47;3.95;;;;;;;;;;5011913;28;20362;-75
2024/01/13 00:27:08;;;;;;;5.93;3.93;;;;;;;;;;5011436;28;20191;-76
2024/01/13 00:29:33;;;;;;;8.63;4.13;;;;;;;;;;5012031;28;20291;-75
2024/01/13 00:31:58;;;;;;;7.95;4.55;;;;;;;;;;5013470;28;20025;-75
2024/01/13 00:34:24;;;;;;;7.45;4.20;;;;;;;;;;4995886;28;20413;-75
2024/01/13 00:36:49;;;;;;;8.05;4.50;;;;;;;;;;5013170;28;20502;-75
2024/01/13 00:39:14;;;;;;;7.47;4.13;;;;;;;;;;5013355;28;20026;-74
2024/01/13 00:41:39;;;;;;;9.60;4.67;;;;;;;;;;5013219;28;20265;-74
2024/01/13 00:44:04;;;;;;;7.38;3.85;;;;;;;;;;5013548;28;20342;-74
2024/01/13 00:46:30;;;;;;;8.75;4.22;;;;;;;;;;5013274;28;20056;-74
2024/01/13 00:48:55;;;;;;;9.50;4.65;;;;;;;;;;5014286;28;20496;-74
2024/01/13 00:51:20;;;;;;;9.38;4.50;;;;;;;;;;5017631;28;20018;-74
2024/01/13 00:53:45;;;;;;;8.57;4.43;;;;;;;;;;5017115;28;20108;-74
2024/01/13 00:56:11;;;;;;;6.90;4.00;;;;;;;;;;5017294;28;20036;-74
2024/01/13 00:58:37;;;;;;;7.30;3.92;;;;;;;;;;5017320;28;20275;-74
2024/01/13 01:01:03;;;;;;;8.73;4.38;;;;;;;;;;5016888;28;20018;-75
2024/01/13 01:03:28;;;;;;;8.30;4.40;;;;;;;;;;4999182;28;20109;-75
2024/01/13 01:05:54;;;;;;;9.10;4.00;;;;;;;;;;5016759;28;20444;-74
2024/01/13 01:08:19;;;;;;;8.65;4.00;;;;;;;;;;5017179;28;20065;-74
2024/01/13 01:10:44;;;;;;;6.38;3.78;;;;;;;;;;5017176;28;20018;-74
2024/01/13 01:13:10;;;;;;;9.55;3.80;;;;;;;;;;5016801;28;20026;-74
2024/01/13 01:15:35;;;;;;;8.20;3.90;;;;;;;;;;4999320;28;20053;-74
2024/01/13 01:18:00;;;;;;;7.03;4.07;;;;;;;;;;5016523;28;20283;-75
2024/01/13 01:20:25;;;;;;;6.43;3.50;;;;;;;;;;4999095;28;20068;-75
2024/01/13 01:22:50;;;;;;;7.40;3.88;;;;;;;;;;4999036;28;20259;-74
2024/01/13 01:25:16;;;;;;;6.77;3.83;;;;;;;;;;4999023;28;20057;-74
2024/01/13 01:27:41;;;;;;;6.03;3.57;;;;;;;;;;5017118;28;20294;-75
2024/01/13 01:30:07;;;;;;;9.00;3.60;;;;;;;;;;5017627;28;20295;-73
2024/01/13 01:32:32;;;;;;;5.50;3.38;;;;;;;;;;5017562;28;20287;-75
2024/01/13 01:34:57;;;;;;;6.20;3.03;;;;;;;;;;5000206;28;20030;-74
2024/01/13 01:37:23;;;;;;;6.57;3.90;;;;;;;;;;5017705;28;20258;-75
2024/01/13 01:39:48;;;;;;;8.68;3.60;;;;;;;;;;5000136;28;20260;-75
2024/01/13 01:42:13;;;;;;;7.32;3.78;;;;;;;;;;5017559;28;20496;-75
2024/01/13 01:44:38;;;;;;;7.60;3.83;;;;;;;;;;5017849;28;20026;-75
2024/01/13 01:47:04;;;;;;;6.73;3.40;;;;;;;;;;5017449;28;20318;-75
2024/01/13 01:49:30;;;;;;;7.80;3.72;;;;;;;;;;5017321;28;20267;-75
2024/01/13 01:51:55;;;;;;;4.50;2.72;;;;;;;;;;4999174;28;20485;-75
2024/01/13 01:54:20;;;;;;;6.18;3.38;;;;;;;;;;5016808;28;20396;-75
2024/01/13 01:56:45;;;;;;;5.55;3.42;;;;;;;;;;5017068;28;20366;-75
2024/01/13 01:59:11;;;;;;;7.20;3.70;;;;;;;;;;5016025;28;20034;-75
2024/01/13 02:01:37;;;;;;;6.97;3.35;;;;;;;;;;5015848;28;20339;-75
2024/01/13 02:04:03;;;;;;;7.13;4.05;;;;;;;;;;5016200;28;20420;-74
2024/01/13 02:06:29;;;;;;;8.00;3.63;;;;;;;;;;5016253;28;20493;-75
2024/01/13 02:08:55;;;;;;;5.65;3.30;;;;;;;;;;5015889;28;20075;-75
2024/01/13 02:11:20;;;;;;;5.93;3.47;;;;;;;;;;5016009;28;20104;-75
2024/01/13 02:13:46;;;;;;;7.65;3.60;;;;;;;;;;5015676;28;20064;-75
2024/01/13 02:16:13;;;;;;;5.75;3.35;;;;;;;;;;5015840;28;20032;-75
2024/01/13 02:18:38;;;;;;;5.72;3.35;;;;;;;;;;4998578;28;20121;-75
2024/01/13 02:21:04;;;;;;;5.22;3.35;;;;;;;;;;5015859;28;20053;-75
2024/01/13 02:23:29;;;;;;;5.00;2.97;;;;;;;;;;5016461;28;20034;-74
2024/01/13 02:25:55;;;;;;;6.20;3.63;;;;;;;;;;5015969;28;20034;-75
2024/01/13 02:28:20;;;;;;;7.22;3.85;;;;;;;;;;5015807;28;20030;-74
2024/01/13 02:30:45;;;;;;;8.07;3.78;;;;;;;;;;5015583;28;20068;-74
2024/01/13 02:33:11;;;;;;;5.53;3.60;;;;;;;;;;5015903;28;20034;-75
2024/01/13 02:35:36;;;;;;;6.00;3.42;;;;;;;;;;5015859;28;20347;-75
2024/01/13 02:38:01;;;;;;;5.53;2.90;;;;;;;;;;5015976;28;20054;-74
2024/01/13 02:40:26;;;;;;;6.28;3.45;;;;;;;;;;4998142;28;20259;-74
2024/01/13 02:42:51;;;;;;;5.35;3.50;;;;;;;;;;5015730;28;20445;-75
2024/01/13 02:45:17;;;;;;;4.90;2.55;;;;;;;;;;5015231;28;20028;-75
2024/01/13 02:47:53;;;;;;;7.33;3.80;;;;;;;;;;5015326;28;20104;-75
2024/01/13 02:50:18;;;;;;;6.50;3.65;;;;;;;;;;5015502;28;20267;-75
2024/01/13 02:52:44;;;;;;;6.65;3.72;;;;;;;;;;5015581;28;20037;-75
2024/01/13 02:55:09;;;;;;;8.15;3.63;;;;;;;;;;5016000;28;20026;-76
2024/01/13 02:57:34;;;;;;;6.03;3.33;;;;;;;;;;5017836;28;20378;-75
2024/01/13 03:00:00;;;;;;;5.60;3.45;;;;;;;;;;5018624;28;20037;-76
2024/01/13 03:02:25;;;;;;;6.27;3.67;;;;;;;;;;5016538;28;20084;-75
2024/01/13 03:04:50;;;;;;;5.80;3.10;;;;;;;;;;5014876;28;20252;-75
2024/01/13 03:07:15;;;;;;;6.43;3.75;;;;;;;;;;5014539;28;20477;-75
2024/01/13 03:09:41;;;;;;;8.13;3.75;;;;;;;;;;5014495;28;20032;-74
2024/01/13 03:12:06;;;;;;;7.47;3.40;;;;;;;;;;5014309;28;20024;-75
2024/01/13 03:14:31;;;;;;;6.18;3.00;;;;;;;;;;5014820;28;20492;-74
2024/01/13 03:16:57;;;;;;;5.65;3.42;;;;;;;;;;5014702;28;20022;-75
2024/01/13 03:19:22;;;;;;;6.73;3.40;;;;;;;;;;5014946;28;20030;-75
2024/01/13 03:21:47;;;;;;;7.30;3.77;;;;;;;;;;5014850;28;20255;-75
2024/01/13 03:24:12;;;;;;;5.90;3.47;;;;;;;;;;5014456;28;20626;-76
2024/01/13 03:26:37;;;;;;;5.43;3.13;;;;;;;;;;5014249;28;20636;-75
2024/01/13 03:29:03;;;;;;;5.97;3.28;;;;;;;;;;5014211;28;20607;-75
2024/01/13 03:31:28;;;;;;;6.55;3.53;;;;;;;;;;5014582;28;20076;-75
2024/01/13 03:33:53;;;;;;;6.83;3.10;;;;;;;;;;5015085;28;20033;-75
2024/01/13 03:36:18;;;;;;;7.05;3.60;;;;;;;;;;5014529;28;20247;-74
2024/01/13 03:38:44;;;;;;;6.77;3.67;;;;;;;;;;5014644;28;20033;-76
2024/01/13 03:41:09;;;;;;;6.90;3.17;;;;;;;;;;5014265;28;20263;-75
2024/01/13 03:43:35;;;;;;;5.45;3.10;;;;;;;;;;5014110;28;20405;-74
2024/01/13 03:46:00;;;;;;;5.40;3.30;;;;;;;;;;5014139;28;20030;-74
2024/01/13 03:48:26;;;;;;;5.55;3.53;;;;;;;;;;4996567;28;20026;-74
2024/01/13 03:50:51;;;;;;;5.90;3.55;;;;;;;;;;5014551;28;20025;-74
2024/01/13 03:53:17;;;;;;;5.28;3.17;;;;;;;;;;4996537;28;20030;-74
2024/01/13 03:55:42;;;;;;;6.28;3.13;;;;;;;;;;5014351;28;20018;-74
2024/01/13 03:58:07;;;;;;;5.43;3.30;;;;;;;;;;5014211;28;20393;-74
2024/01/13 04:00:34;;;;;;;7.03;3.63;;;;;;;;;;4996485;28;20400;-74
2024/01/13 04:02:59;;;;;;;5.57;2.92;;;;;;;;;;4996831;28;20061;-73
2024/01/13 04:05:24;;;;;;;5.77;3.30;;;;;;;;;;5014164;28;20483;-73
2024/01/13 04:07:50;;;;;;;5.13;3.33;;;;;;;;;;5014235;28;20711;-74
2024/01/13 04:10:15;;;;;;;4.85;3.00;;;;;;;;;;5013899;28;20025;-75
2024/01/13 04:12:43;;;;;;;4.85;2.95;;;;;;;;;;5013895;28;20026;-74
2024/01/13 04:15:09;;;;;;;5.75;3.20;;;;;;;;;;5014113;28;20048;-74
2024/01/13 04:17:34;;;;;;;3.97;2.72;;;;;;;;;;5014133;28;20104;-74
2024/01/13 04:20:00;;;;;;;7.47;2.87;;;;;;;;;;5013843;28;20114;-74
2024/01/13 04:22:25;;;;;;;4.13;2.87;;;;;;;;;;5013681;28;20334;-74
2024/01/13 04:24:50;;;;;;;4.57;2.50;;;;;;;;;;5014079;28;20302;-74
2024/01/13 04:27:15;;;;;;;4.90;2.90;;;;;;;;;;5013568;28;20297;-74
2024/01/13 04:29:41;;;;;;;5.13;3.03;;;;;;;;;;5013862;28;20291;-74
2024/01/13 04:32:06;;;;;;;3.78;2.60;;;;;;;;;;5013722;28;20113;-74
2024/01/13 04:34:31;;;;;;;4.97;3.00;;;;;;;;;;5014370;28;20033;-74
2024/01/13 04:36:57;;;;;;;4.47;2.23;;;;;;;;;;4996263;28;20076;-74
2024/01/13 04:39:22;;;;;;;3.33;2.25;;;;;;;;;;5013580;28;20306;-74
2024/01/13 04:41:48;;;;;;;4.03;2.70;;;;;;;;;;5013655;28;20517;-74
2024/01/13 04:44:13;;;;;;;3.95;2.38;;;;;;;;;;5013702;28;20788;-74
2024/01/13 04:46:38;;;;;;;4.40;2.60;;;;;;;;;;5013590;28;20507;-74
2024/01/13 04:49:03;;;;;;;4.28;2.58;;;;;;;;;;5013716;28;20260;-74
2024/01/13 04:51:28;;;;;;;3.70;2.15;;;;;;;;;;5014101;28;20030;-74
2024/01/13 04:53:55;;;;;;;4.40;2.37;;;;;;;;;;5013889;28;20025;-74
2024/01/13 04:56:20;;;;;;;4.93;2.58;;;;;;;;;;5013761;28;20255;-73
2024/01/13 04:58:45;;;;;;;3.58;2.38;;;;;;;;;;5013440;28;20030;-74
2024/01/13 05:01:11;;;;;;;4.27;2.40;;;;;;;;;;5013412;28;20034;-74
2024/01/13 05:03:36;;;;;;;3.87;2.30;;;;;;;;;;4996545;28;20267;-74
2024/01/13 05:06:01;;;;;;;3.15;2.13;;;;;;;;;;5013491;28;20626;-74
2024/01/13 05:08:26;;;;;;;3.15;2.15;;;;;;;;;;4995735;28;20029;-74
2024/01/13 05:10:52;;;;;;;4.45;2.45;;;;;;;;;;5013605;28;20026;-74
2024/01/13 05:13:17;;;;;;;4.07;1.83;;;;;;;;;;5013312;28;20503;-75
2024/01/13 05:15:42;;;;;;;2.80;2.03;;;;;;;;;;5013245;28;20048;-75
2024/01/13 05:18:08;;;;;;;3.28;2.00;;;;;;;;;;5012933;28;20049;-74
2024/01/13 05:20:34;;;;;;;1.60;1.20;;;;;;;;;;5012920;28;20041;-75
2024/01/13 05:22:59;;;;;;;3.15;2.10;;;;;;;;;;5013346;28;20087;-74
2024/01/13 05:25:24;;;;;;;4.25;2.20;;;;;;;;;;4995162;28;20427;-74
2024/01/13 05:27:50;;;;;;;3.40;2.10;;;;;;;;;;5013208;28;20025;-74
2024/01/13 05:30:15;;;;;;;3.30;2.00;;;;;;;;;;4995114;28;20477;-74
2024/01/13 05:32:40;;;;;;;4.15;2.25;;;;;;;;;;4995318;28;20881;-74
2024/01/13 05:35:07;;;;;;;4.13;1.80;;;;;;;;;;5014329;28;20052;-74
2024/01/13 05:37:32;;;;;;;4.72;1.90;;;;;;;;;;5016406;28;20630;-74
2024/01/13 05:39:58;;;;;;;2.83;1.87;;;;;;;;;;5016619;28;20021;-74
2024/01/13 05:42:23;;;;;;;2.05;1.58;;;;;;;;;;5016694;28;20282;-74
2024/01/13 05:44:48;;;;;;;2.72;1.80;;;;;;;;;;5016392;28;20029;-73
2024/01/13 05:47:14;;;;;;;2.47;1.65;;;;;;;;;;5016546;28;20021;-75
2024/01/13 05:49:40;;;;;;;3.53;1.80;;;;;;;;;;4999006;28;20026;-75
2024/01/13 05:52:05;;;;;;;1.98;1.50;;;;;;;;;;5016191;28;20032;-75
2024/01/13 05:54:30;;;;;;;2.42;1.77;;;;;;;;;;5016169;28;20037;-75
2024/01/13 05:56:55;;;;;;;3.10;1.90;;;;;;;;;;5016563;28;20412;-75
2024/01/13 05:59:21;;;;;;;3.10;1.73;;;;;;;;;;5016364;28;20029;-75
2024/01/13 06:01:46;;;;;;;2.87;1.70;;;;;;;;;;4998492;28;20260;-75
2024/01/13 06:04:11;;;;;;;2.87;1.63;;;;;;;;;;4998406;28;20264;-75
2024/01/13 06:06:36;;;;;;;3.10;1.42;;;;;;;;;;5016077;28;20286;-75
2024/01/13 06:09:01;;;;;;;2.30;1.57;;;;;;;;;;5016158;28;20404;-75
2024/01/13 06:11:27;;;;;;;3.73;1.93;;;;;;;;;;4998333;28;20669;-75
2024/01/13 06:13:53;;;;;;;2.00;1.60;;;;;;;;;;5015983;28;20634;-75
2024/01/13 06:16:18;;;;;;;2.47;1.67;;;;;;;;;;5016022;28;20263;-75
2024/01/13 06:18:43;;;;;;;2.45;1.77;;;;;;;;;;5016222;28;20029;-75
2024/01/13 06:21:09;;;;;;;2.43;1.60;;;;;;;;;;5016016;28;20053;-75
2024/01/13 06:23:34;;;;;;;3.20;2.00;;;;;;;;;;5016502;28;20259;-75
2024/01/13 06:26:00;;;;;;;3.00;1.73;;;;;;;;;;5016367;28;20259;-74
2024/01/13 06:28:25;;;;;;;3.30;2.20;;;;;;;;;;5015920;28;20017;-74
2024/01/13 06:30:50;;;;;;;3.07;2.03;;;;;;;;;;5016001;28;20121;-74
2024/01/13 06:33:15;;;;;;;3.95;2.17;;;;;;;;;;5015708;28;20259;-74
2024/01/13 06:35:41;;;;;;;2.90;2.03;;;;;;;;;;5015809;28;20034;-75
2024/01/13 06:38:06;;;;;;;3.63;2.30;;;;;;;;;;5015988;28;20021;-74
2024/01/13 06:40:31;;;;;;;2.97;1.90;;;;;;;;;;4998517;28;20028;-76
2024/01/13 06:42:56;;;;;;;3.13;2.03;;;;;;;;;;5018583;28;20108;-75
2024/01/13 06:45:21;;;;;;;3.80;1.98;;;;;;;;;;5017749;28;20294;-74
2024/01/13 06:47:47;;;;;;;3.20;2.20;;;;;;;;;;4997322;28;20420;-75
2024/01/13 06:50:12;;;;;;;3.35;2.08;;;;;;;;;;5014787;28;20634;-74
2024/01/13 06:52:38;;;;;;;4.07;2.45;;;;;;;;;;5014871;28;20025;-73
2024/01/13 06:55:05;;;;;;;3.20;2.00;;;;;;;;;;5015068;28;20022;-74
2024/01/13 06:57:30;;;;;;;4.15;2.30;;;;;;;;;;5014625;28;20515;-74
2024/01/13 06:59:55;;;;;;;2.80;1.93;;;;;;;;;;5014586;28;20117;-73
2024/01/13 07:02:20;;;;;;;3.58;2.30;;;;;;;;;;5014720;28;20335;-75
2024/01/13 07:04:47;;;;;;;3.67;2.17;;;;;;;;;;5015055;28;20080;-73
2024/01/13 07:07:13;;;;;;;2.92;1.92;;;;;;;;;;4997466;28;20026;-74
2024/01/13 07:09:38;;;;;;;3.53;2.10;;;;;;;;;;5015035;28;20025;-74
2024/01/13 07:12:03;;;;;;;3.25;2.22;;;;;;;;;;4997149;28;20049;-73
2024/01/13 07:14:30;;;;;;;3.95;2.17;;;;;;;;;;5014892;28;20037;-73
2024/01/13 07:16:55;;;;;;;4.03;2.17;;;;;;;;;;5014668;28;20497;-74
2024/01/13 07:19:20;;;;;;;3.13;1.52;;;;;;;;;;5015153;28;20053;-74
2024/01/13 07:21:46;;;;;;;3.22;1.85;;;;;;;;;;5014912;28;20048;-74
2024/01/13 07:24:11;;;;;;;3.40;2.17;;;;;;;;;;5014489;28;20048;-74
2024/01/13 07:26:41;;;;;;;2.80;2.10;;;;;;;;;;5014411;28;20259;-74
2024/01/13 07:29:07;;;;;;;3.40;2.15;;;;;;;;;;4996543;28;20113;-76
2024/01/13 07:31:32;;;;;;;3.88;2.20;;;;;;;;;;5014567;28;20057;-73
2024/01/13 07:33:57;;;;;;;2.60;1.70;;;;;;;;;;5014422;28;20029;-74
2024/01/13 07:36:22;;;;;;;3.60;2.13;;;;;;;;;;5014865;28;20274;-74
2024/01/13 07:38:47;;;;;;;3.88;2.17;;;;;;;;;;4996636;28;20387;-74
2024/01/13 07:41:13;;;;;;;5.63;2.05;;;;;;;;;;5014283;28;20053;-75
2024/01/13 07:43:38;;;;;;;3.73;1.50;;;;;;;;;;5013993;28;20033;-74
2024/01/13 07:46:03;;;;;;;3.10;2.03;;;;;;;;;;4996441;28;20263;-75
2024/01/13 07:48:28;;;;;;;4.53;2.17;;;;;;;;;;5013990;28;20032;-75
2024/01/13 07:50:54;;;;;;;5.45;2.20;;;;;;;;;;5013975;28;20018;-75
2024/01/13 07:53:19;;;;;;;5.47;2.42;;;;;;;;;;5014191;28;20378;-75
2024/01/13 07:55:44;;;;;;;4.32;2.60;;;;;;;;;;5013962;28;20113;-75
2024/01/13 07:58:09;;;;;;;3.07;2.17;;;;;;;;;;5013405;28;20054;-75
2024/01/13 08:00:35;;;;;;;3.80;2.35;;;;;;;;;;5013895;28;20290;-75
2024/01/13 08:03:00;;;;;;;2.83;1.87;;;;;;;;;;4996330;28;20029;-75
2024/01/13 08:05:25;;;;;;;2.67;1.98;;;;;;;;;;5013872;28;20314;-75
2024/01/13 08:07:50;;;;;;;3.58;2.15;;;;;;;;;;4996129;28;20061;-75
2024/01/13 08:10:16;;;;;;;3.63;2.20;;;;;;;;;;5013664;28;20033;-75
2024/01/13 08:12:41;;;;;;;15.30;5.88;;;;;;;;;;4996051;28;20269;-75
2024/01/13 08:15:07;;;;;;;6.10;2.80;;;;;;;;;;4996256;28;20397;-75
2024/01/13 08:17:32;;;;;;;4.72;2.55;;;;;;;;;;5013632;28;20634;-75
2024/01/13 08:19:57;;;;;;;23.13;6.97;;;;;;;;;;4996707;28;20480;-74
2024/01/13 08:22:22;;;;;;;25.23;6.50;;;;;;;;;;5013978;28;20045;-75
2024/01/13 08:24:48;;;;;;;7.32;3.25;;;;;;;;;;5013363;28;20260;-74
2024/01/13 08:27:13;;;;;;;3.70;2.22;;;;;;;;;;5013390;28;20030;-75
2024/01/13 08:29:38;;;;;;;10.05;3.55;;;;;;;;;;5013679;28;20096;-74
2024/01/13 08:32:04;;;;;;;4.00;2.42;;;;;;;;;;5013802;28;20469;-77
2024/01/13 08:34:29;;;;;;;6.82;3.50;;;;;;;;;;5014505;28;20417;-75
2024/01/13 08:36:54;;;;;;;11.03;4.50;;;;;;;;;;5013746;28;20022;-74
2024/01/13 08:39:20;;;;;;;5.03;2.95;;;;;;;;;;5013435;28;20394;-74
2024/01/13 08:41:45;;;;;;;5.00;2.72;;;;;;;;;;5013445;28;20048;-73
2024/01/13 08:44:10;;;;;;;5.13;2.83;;;;;;;;;;5013240;28;20537;-74
2024/01/13 08:46:36;;;;;;;11.57;5.07;;;;;;;;;;5013348;28;20790;-74
2024/01/13 08:49:01;;;;;;;6.03;3.10;;;;;;;;;;5013547;28;20354;-73
2024/01/13 08:51:26;;;;;;;7.20;2.92;;;;;;;;;;5013929;28;20029;-74
2024/01/13 08:53:52;;;;;;;4.15;2.55;;;;;;;;;;5013675;28;20075;-73
2024/01/13 08:56:17;;;;;;;4.63;2.45;;;;;;;;;;4995801;28;20030;-72
2024/01/13 08:58:42;;;;;;;4.83;2.70;;;;;;;;;;5013109;28;20109;-74
2024/01/13 09:01:08;;;;;;;3.95;2.67;;;;;;;;;;4995808;28;20341;-73
2024/01/13 09:03:33;;;;;;;5.18;3.13;;;;;;;;;;5014289;28;20482;-73
2024/01/13 09:05:59;;;;;;;3.92;2.47;;;;;;;;;;5013702;28;20028;-74
2024/01/13 09:08:24;;;;;;;6.10;3.17;;;;;;;;;;5014451;28;20026;-75
2024/01/13 09:10:50;;;;;;;5.63;3.03;;;;;;;;;;5016030;28;20488;-75
2024/01/13 09:13:15;;;;;;;3.92;2.30;;;;;;;;;;5018776;28;20029;-74
2024/01/13 09:15:40;;;;;;;4.05;2.30;;;;;;;;;;5018419;28;20089;-76
2024/01/13 09:18:06;;;;;;;5.00;3.13;;;;;;;;;;4999909;28;20045;-75
2024/01/13 09:20:32;;;;;;;4.38;2.72;;;;;;;;;;5017307;28;20063;-75
2024/01/13 09:22:57;;;;;;;8.10;2.60;;;;;;;;;;4999645;28;20497;-74
2024/01/13 09:25:23;;;;;;;8.73;4.88;;;;;;;;;;5017026;28;20528;-75
2024/01/13 09:27:48;;;;;;;4.57;2.83;;;;;;;;;;5017092;28;20478;-75
2024/01/13 09:30:15;;;;;;;4.22;2.50;;;;;;;;;;5016975;28;20751;-74
2024/01/13 09:32:42;;;;;;;4.57;2.92;;;;;;;;;;5016888;28;20022;-74
2024/01/13 09:35:08;;;;;;;4.28;2.67;;;;;;;;;;5016584;28;20072;-74
2024/01/13 09:37:34;;;;;;;4.38;2.50;;;;;;;;;;5016630;28;20053;-73
2024/01/13 09:39:59;;;;;;;4.50;2.50;;;;;;;;;;5016614;28;20570;-75
2024/01/13 09:42:30;;;;;;;3.65;2.15;;;;;;;;;;4998820;28;20021;-74
2024/01/13 09:44:56;;;;;;;3.72;2.60;;;;;;;;;;5016413;28;20032;-74
2024/01/13 09:47:22;;;;;;;4.30;2.50;;;;;;;;;;5017099;28;20026;-75
2024/01/13 09:49:50;;;;;;;3.33;2.10;;;;;;;;;;4998798;28;20022;-75
2024/01/13 09:52:16;;;;;;;3.13;2.15;;;;;;;;;;5016558;28;20026;-75
2024/01/13 09:54:46;;;;;;;3.60;2.10;;;;;;;;;;4999226;28;20032;-74
2024/01/13 09:57:12;;;;;;;2.45;1.83;;;;;;;;;;5016318;28;20034;-74
2024/01/13 09:59:38;;;;;;;3.33;1.90;;;;;;;;;;5016475;28;20503;-75
2024/01/13 10:02:03;;;;;;;3.70;2.30;;;;;;;;;;5016454;28;20460;-75
2024/01/13 10:04:28;;;;;;;2.97;2.03;;;;;;;;;;5016687;28;20062;-75
2024/01/13 10:06:55;;;;;;;2.90;2.03;;;;;;;;;;5016621;28;20080;-75
2024/01/13 10:09:20;;;;;;;4.30;2.42;;;;;;;;;;5017382;28;20247;-78
2024/01/13 10:11:46;;;;;;;5.82;2.67;;;;;;;;;;5017788;28;20041;-75
2024/01/13 10:14:13;;;;;;;5.03;2.80;;;;;;;;;;5016093;28;20030;-75
2024/01/13 10:16:39;;;;;;;4.65;2.78;;;;;;;;;;5016329;28;20034;-75
2024/01/13 10:19:05;;;;;;;4.65;2.83;;;;;;;;;;5016703;28;20041;-75
2024/01/13 10:21:31;;;;;;;4.40;2.83;;;;;;;;;;4997399;28;20024;-75
2024/01/13 10:23:58;;;;;;;3.88;2.53;;;;;;;;;;5013511;28;20030;-75
2024/01/13 10:26:24;;;;;;;4.82;3.15;;;;;;;;;;4997880;28;20052;-75
2024/01/13 10:28:50;;;;;;;5.38;3.17;;;;;;;;;;5018757;28;20042;-77
2024/01/13 10:31:18;;;;;;;5.43;3.13;;;;;;;;;;5021261;28;20032;-76
2024/01/13 10:33:49;;;;;;;5.70;2.83;;;;;;;;;;5017667;28;20030;-76
2024/01/13 10:36:16;;;;;;;4.70;2.88;;;;;;;;;;5015325;28;20029;-75
2024/01/13 10:38:42;;;;;;;3.92;2.63;;;;;;;;;;4997896;28;20037;-75
2024/01/13 10:41:11;;;;;;;9.40;3.25;;;;;;;;;;5015264;28;20489;-76
2024/01/13 10:43:39;;;;;;;6.07;3.08;;;;;;;;;;5015621;28;20106;-76
2024/01/13 10:46:09;;;;;;;5.43;3.10;;;;;;;;;;5017472;28;20028;-77
2024/01/13 10:48:45;;;;;;;4.45;2.58;;;;;;;;;;5015280;28;20396;-76
2024/01/13 10:51:36;;;;;;;5.05;2.97;;;;;;;;;;5016641;28;20026;-75
2024/01/13 10:54:03;;;;;;;4.38;2.78;;;;;;;;;;4997877;28;20556;-75
2024/01/13 10:56:32;;;;;;;5.40;2.80;;;;;;;;;;5016617;28;20029;-75
2024/01/13 10:58:58;;;;;;;3.78;2.50;;;;;;;;;;4998896;28;20022;-78
2024/01/13 11:01:27;;;;;;;4.57;2.70;;;;;;;;;;4997943;28;20038;-75
2024/01/13 11:03:54;;;;;;;5.38;3.03;;;;;;;;;;5015340;28;20041;-75
2024/01/13 11:06:23;;;;;;;4.57;2.80;;;;;;;;;;5015275;28;20037;-76
2024/01/13 11:08:48;;;;;;;5.10;2.75;;;;;;;;;;5014039;28;20109;-79
2024/01/13 11:11:20;;;;;;;5.18;3.08;;;;;;;;;;4997302;28;20064;-75
2024/01/13 11:13:51;;;;;;;4.82;3.22;;;;;;;;;;4999420;28;20393;-76
2024/01/13 11:16:21;;;;;;;6.57;3.38;;;;;;;;;;4997479;28;20440;-75
2024/01/13 11:18:51;;;;;;;5.13;2.88;;;;;;;;;;5014398;28;20022;-75
2024/01/13 11:21:17;;;;;;;4.50;2.60;;;;;;;;;;5014384;28;20505;-75
2024/01/13 11:23:49;;;;;;;5.07;3.30;;;;;;;;;;5014665;28;20107;-75
2024/01/13 11:26:16;;;;;;;5.45;2.60;;;;;;;;;;5014057;28;20061;-74
2024/01/13 11:28:44;;;;;;;5.43;2.85;;;;;;;;;;5014061;28;20133;-75
2024/01/13 11:31:28;;;;;;;3.90;2.60;;;;;;;;;;4996488;28;20042;-75
2024/01/13 11:33:54;;;;;;;;;;;;;;;;;;5016376;28;20393;-75
2024/01/13 11:36:19;;;;;;;4.97;1.85;;;;;;;;;;5014035;28;19913;-76
2024/01/13 11:38:45;;;;;;;4.45;2.45;;;;;;;;;;5013874;28;20022;-74
2024/01/13 11:41:10;;;;;;;5.18;2.70;;;;;;;;;;4996565;28;20377;-74
2024/01/13 11:43:39;;;;;;;4.78;2.88;;;;;;;;;;4996802;28;20028;-75
2024/01/13 11:46:10;;;;;;;10.98;5.60;;;;;;;;;;5014317;28;20049;-75
2024/01/13 11:48:38;;;;;;;4.95;2.85;;;;;;;;;;5013917;28;20029;-75
2024/01/13 11:51:08;;;;;;;4.82;2.72;;;;;;;;;;5014024;28;20500;-75
2024/01/13 11:53:42;;;;;;;4.55;2.83;;;;;;;;;;5013890;28;20034;-75
2024/01/13 11:56:08;;;;;;;5.43;2.78;;;;;;;;;;5013854;28;20022;-74
2024/01/13 11:58:36;;;;;;;6.72;3.35;;;;;;;;;;5013660;28;20029;-75
2024/01/13 12:01:04;;;;;;;4.55;2.72;;;;;;;;;;4996071;28;20026;-74
2024/01/13 12:03:30;;;;;;;5.13;3.25;;;;;;;;;;5015171;28;20029;-75
2024/01/13 12:05:55;;;;;;;4.03;2.50;;;;;;;;;;5013087;28;20026;-73
2024/01/13 12:08:24;;;;;;;4.57;2.63;;;;;;;;;;5013326;28;20037;-75
2024/01/13 12:10:51;;;;;;;6.80;3.15;;;;;;;;;;5015041;28;20183;-78
2024/01/13 12:13:18;;;;;;;4.72;3.25;;;;;;;;;;5017243;28;20071;-78
2024/01/13 12:15:46;;;;;;;7.20;2.97;;;;;;;;;;5002760;28;20029;-81
2024/01/13 12:18:22;;;;;;;5.20;3.03;;;;;;;;;;4998928;28;20033;-81
2024/01/13 12:20:50;;;;;;;5.80;3.40;;;;;;;;;;5013746;28;20033;-74
2024/01/13 12:23:16;;;;;;;6.30;3.85;;;;;;;;;;5014412;28;20096;-74
2024/01/13 12:25:41;;;;;;;5.38;3.53;;;;;;;;;;5013884;28;20034;-73
2024/01/13 12:28:06;;;;;;;10.30;4.00;;;;;;;;;;5013901;28;20018;-73
2024/01/13 12:30:35;;;;;;;10.55;4.38;;;;;;;;;;5013724;28;20281;-73
2024/01/13 12:33:00;;;;;;;7.15;2.78;;;;;;;;;;5013907;28;20061;-73
2024/01/13 12:35:25;;;;;;;7.27;3.77;;;;;;;;;;5013771;28;20064;-74
2024/01/13 12:37:51;;;;;;;7.68;3.95;;;;;;;;;;4996190;28;20247;-74
2024/01/13 12:40:18;;;;;;;6.68;3.60;;;;;;;;;;4996343;28;20436;-73
2024/01/13 12:42:43;;;;;;;7.70;3.55;;;;;;;;;;5013898;28;20053;-75
2024/01/13 12:45:11;;;;;;;6.72;3.58;;;;;;;;;;5017374;28;20057;-74
2024/01/13 12:47:37;;;;;;;5.10;3.25;;;;;;;;;;5017871;28;20080;-73
2024/01/13 12:50:09;;;;;;;4.03;2.53;;;;;;;;;;4999677;28;20025;-73
2024/01/13 12:52:38;;;;;;;4.93;3.05;;;;;;;;;;5017651;28;20045;-74
2024/01/13 12:55:10;;;;;;;5.30;3.30;;;;;;;;;;5018037;28;20030;-73
2024/01/13 12:57:40;;;;;;;6.85;3.75;;;;;;;;;;5017495;28;20030;-75
2024/01/13 13:00:06;;;;;;;7.88;4.20;;;;;;;;;;5017373;28;20022;-74
2024/01/13 13:02:35;;;;;;;7.03;4.30;;;;;;;;;;5017949;28;20025;-74
2024/01/13 13:05:01;;;;;;;7.95;3.83;;;;;;;;;;5000269;28;20044;-74
2024/01/13 13:07:28;;;;;;;6.30;3.10;;;;;;;;;;5016769;28;20033;-73
2024/01/13 13:09:55;;;;;;;3.85;2.35;;;;;;;;;;5016780;28;20097;-73
2024/01/13 13:12:21;;;;;;;6.05;3.33;;;;;;;;;;5016654;28;20029;-74
2024/01/13 13:14:47;;;;;;;5.72;3.42;;;;;;;;;;5016708;28;20026;-74
2024/01/13 13:17:12;;;;;;;6.28;3.35;;;;;;;;;;4999181;28;20485;-74
2024/01/13 13:19:37;;;;;;;5.55;3.70;;;;;;;;;;4998955;28;20508;-74
2024/01/13 13:22:03;;;;;;;5.75;3.22;;;;;;;;;;5016833;28;20022;-74
2024/01/13 13:24:29;;;;;;;5.32;3.47;;;;;;;;;;5016750;28;20105;-74
2024/01/13 13:26:54;;;;;;;6.47;3.10;;;;;;;;;;4999141;28;20113;-74
2024/01/13 13:29:20;;;;;;;7.15;4.22;;;;;;;;;;5016724;28;20072;-74
2024/01/13 13:31:46;;;;;;;5.80;2.80;;;;;;;;;;5016713;28;20029;-74
2024/01/13 13:34:11;;;;;;;10.05;2.90;;;;;;;;;;5016516;28;20256;-74
2024/01/13 13:36:36;;;;;;;6.82;4.22;;;;;;;;;;5019676;28;20060;-79
2024/01/13 13:39:05;;;;;;;6.47;3.80;;;;;;;;;;4999490;28;20116;-73
2024/01/13 13:41:30;;;;;;;7.03;3.92;;;;;;;;;;4998969;28;20252;-74
2024/01/13 13:43:55;;;;;;;8.13;4.35;;;;;;;;;;5017666;28;20366;-74
2024/01/13 13:46:20;;;;;;;6.38;3.90;;;;;;;;;;5016062;28;20026;-74
2024/01/13 13:48:46;;;;;;;6.97;3.22;;;;;;;;;;4998413;28;20022;-74
2024/01/13 13:51:12;;;;;;;11.97;3.93;;;;;;;;;;5016586;28;20017;-74
2024/01/13 13:53:37;;;;;;;9.30;3.70;;;;;;;;;;5016184;28;20260;-74
2024/01/13 13:56:03;;;;;;;9.03;4.13;;;;;;;;;;5015298;28;20028;-74
2024/01/13 13:58:28;;;;;;;7.95;4.18;;;;;;;;;;5015766;28;20362;-73
2024/01/13 14:00:53;;;;;;;7.00;3.95;;;;;;;;;;5015780;28;20044;-76
2024/01/13 14:03:18;;;;;;;7.13;4.43;;;;;;;;;;4998249;28;20503;-75
2024/01/13 14:05:44;;;;;;;6.60;3.72;;;;;;;;;;5015442;28;20451;-74
2024/01/13 14:08:10;;;;;;;7.55;4.53;;;;;;;;;;5015771;28;20026;-74
2024/01/13 14:10:36;;;;;;;8.57;5.18;;;;;;;;;;5015565;28;20022;-74
2024/01/13 14:13:02;;;;;;;8.18;4.07;;;;;;;;;;5016710;28;20168;-74
2024/01/13 14:15:28;;;;;;;7.15;4.50;;;;;;;;;;5017831;28;20179;-75
2024/01/13 14:17:53;;;;;;;8.45;4.82;;;;;;;;;;5017022;28;20026;-75
2024/01/13 14:20:19;;;;;;;8.15;4.63;;;;;;;;;;5015934;28;20025;-75
2024/01/13 14:22:44;;;;;;;9.30;4.63;;;;;;;;;;5015390;28;20042;-74
2024/01/13 14:25:09;;;;;;;6.22;3.72;;;;;;;;;;5015231;28;20030;-75
2024/01/13 14:27:35;;;;;;;7.72;4.47;;;;;;;;;;5015123;28;20072;-75
2024/01/13 14:30:04;;;;;;;5.38;2.90;;;;;;;;;;5015222;28;20026;-74
2024/01/13 14:32:30;;;;;;;8.68;4.68;;;;;;;;;;4997596;28;20113;-74
2024/01/13 14:34:55;;;;;;;10.45;5.15;;;;;;;;;;5015354;28;20392;-74